createdAt,value
2022-08-26T00:02:36.389Z,76.08
2022-08-26T00:05:11.915Z,76.23
2022-08-26T00:08:08.441Z,76.42
2022-08-26T00:10:53.093Z,76.56
2022-08-26T00:13:54.011Z,76.72
2022-08-26T00:20:13.347Z,76.94
2022-08-26T00:23:18.156Z,77.24
2022-08-26T00:25:52.615Z,77.33
2022-08-26T00:28:32.337Z,77.46
2022-08-26T00:34:50.268Z,77.49
2022-08-26T00:37:22.168Z,77.60
2022-08-26T00:46:35.031Z,78.03
2022-08-26T00:49:39.600Z,78.23
2022-08-26T00:52:39.844Z,78.27
2022-08-26T00:56:34.148Z,78.56
2022-08-26T00:59:56.796Z,78.67
2022-08-26T01:03:22.346Z,78.82
2022-08-26T01:05:59.957Z,78.93
2022-08-26T01:08:31.893Z,79.00
2022-08-26T01:11:53.818Z,79.06
2022-08-26T01:15:17.489Z,79.23
2022-08-26T01:18:16.184Z,79.55
2022-08-26T01:21:01.785Z,79.70
2022-08-26T01:24:04.397Z,79.88
2022-08-26T01:27:24.945Z,79.96
2022-08-26T01:30:34.754Z,79.99
2022-08-26T01:36:40.198Z,80.29
2022-08-26T01:39:17.176Z,80.52
2022-08-26T01:49:06.663Z,80.86
2022-08-26T01:51:46.851Z,80.78
2022-08-26T01:54:28.085Z,80.73
2022-08-26T01:57:30.126Z,80.75
2022-08-26T02:01:14.150Z,80.82
2022-08-26T02:04:20.209Z,80.94
2022-08-26T02:06:59.258Z,81.20
2022-08-26T02:09:33.757Z,81.22
2022-08-26T02:12:20.478Z,81.15
2022-08-26T02:15:00.465Z,81.36
2022-08-26T02:17:43.802Z,81.33
2022-08-26T02:24:19.153Z,81.07
2022-08-26T02:26:53.745Z,81.09
2022-08-26T02:29:56.741Z,80.86
2022-08-26T02:32:30.010Z,80.63
2022-08-26T02:35:31.904Z,80.65
2022-08-26T02:38:10.002Z,80.60
2022-08-26T02:40:48.196Z,80.40
2022-08-26T02:43:31.518Z,80.25
2022-08-26T02:46:07.811Z,80.42
2022-08-26T02:48:47.380Z,80.59
2022-08-26T02:51:24.871Z,80.71
2022-08-26T02:54:23.280Z,80.78
2022-08-26T02:56:59.921Z,80.86
2022-08-26T03:02:38.512Z,80.75
2022-08-26T03:05:16.801Z,80.54
2022-08-26T03:14:57.269Z,80.78
2022-08-26T03:21:19.507Z,80.88
2022-08-26T03:24:15.908Z,81.02
2022-08-26T03:26:52.545Z,80.98
2022-08-26T03:29:49.516Z,80.93
2022-08-26T03:32:26.932Z,80.88
2022-08-26T03:34:59.377Z,81.01
2022-08-26T03:37:33.556Z,80.83
2022-08-26T03:40:13.064Z,80.90
2022-08-26T03:42:47.888Z,80.93
2022-08-26T03:45:55.258Z,80.88
2022-08-26T03:49:17.479Z,80.81
2022-08-26T03:51:53.388Z,80.93
2022-08-26T03:57:37.208Z,81.04
2022-08-26T04:00:38.232Z,81.04
2022-08-26T04:11:11.274Z,81.49
2022-08-26T04:14:11.184Z,81.61
2022-08-26T04:16:43.629Z,81.79
2022-08-26T04:19:45.249Z,81.87
2022-08-26T04:25:42.388Z,81.83
2022-08-26T04:28:17.537Z,81.87
2022-08-26T04:30:51.578Z,81.68
2022-08-26T04:38:00.961Z,81.31
2022-08-26T04:40:38.509Z,81.85
2022-08-26T04:43:12.623Z,81.88
2022-08-26T04:46:13.005Z,82.03
2022-08-26T04:55:55.415Z,81.62
2022-08-26T04:58:37.005Z,81.36
2022-08-26T05:01:13.307Z,81.21
2022-08-26T05:04:13.165Z,80.93
2022-08-26T05:07:18.821Z,80.71
2022-08-26T05:12:57.123Z,80.07
2022-08-26T05:15:31.436Z,79.89
2022-08-26T05:18:09.711Z,79.40
2022-08-26T05:21:43.071Z,78.93
2022-08-26T05:24:17.448Z,78.26
2022-08-26T05:26:54.865Z,78.02
2022-08-26T05:29:59.990Z,77.53
2022-08-26T05:32:35.149Z,76.62
2022-08-26T05:35:11.226Z,76.01
2022-08-26T05:37:43.652Z,75.28
2022-08-26T05:40:16.540Z,74.63
2022-08-26T05:42:50.632Z,73.91
2022-08-26T05:45:32.336Z,74.25
2022-08-26T05:48:04.374Z,73.36
2022-08-26T05:50:40.963Z,72.55
2022-08-26T05:53:20.335Z,72.17
2022-08-26T05:55:55.900Z,71.57
2022-08-26T05:58:29.080Z,71.23
2022-08-26T06:01:04.533Z,70.71
2022-08-26T06:03:40.122Z,69.99
2022-08-26T06:06:20.114Z,69.22
2022-08-26T06:09:02.734Z,69.11
2022-08-26T06:11:36.681Z,68.48
2022-08-26T06:14:10.174Z,67.46
2022-08-26T06:16:45.197Z,67.10
2022-08-26T06:19:18.082Z,66.58
2022-08-26T06:21:54.647Z,66.24
2022-08-26T06:24:44.977Z,65.05
2022-08-26T06:27:17.365Z,64.00
2022-08-26T06:29:50.579Z,63.61
2022-08-26T06:32:23.122Z,63.12
2022-08-26T06:34:57.234Z,62.84
2022-08-26T06:37:29.565Z,62.54
2022-08-26T06:40:03.336Z,61.68
2022-08-26T06:42:36.067Z,61.54
2022-08-26T06:45:09.763Z,60.75
2022-08-26T06:47:43.317Z,61.06
2022-08-26T06:50:16.096Z,60.70
2022-08-26T06:52:50.323Z,60.37
2022-08-26T06:55:23.401Z,60.20
2022-08-26T06:58:03.479Z,59.86
2022-08-26T07:00:37.062Z,59.62
2022-08-26T07:03:10.574Z,59.36
2022-08-26T07:05:43.144Z,58.78
2022-08-26T07:08:15.302Z,58.36
2022-08-26T07:10:47.367Z,58.10
2022-08-26T07:13:30.711Z,58.41
2022-08-26T07:16:04.227Z,58.39
2022-08-26T07:18:42.642Z,57.92
2022-08-26T07:21:18.791Z,58.16
2022-08-26T07:23:51.834Z,57.81
2022-08-26T07:26:31.504Z,57.33
2022-08-26T07:29:05.611Z,57.36
2022-08-26T07:31:42.963Z,56.85
2022-08-26T07:34:23.068Z,56.20
2022-08-26T07:36:55.263Z,56.36
2022-08-26T07:39:31.580Z,56.62
2022-08-26T07:42:08.662Z,55.99
2022-08-26T07:44:43.086Z,55.36
2022-08-26T07:47:24.880Z,55.54
2022-08-26T07:50:00.871Z,55.20
2022-08-26T07:52:34.329Z,54.15
2022-08-26T07:55:09.719Z,54.47
2022-08-26T07:57:42.846Z,54.37
2022-08-26T08:00:17.381Z,53.80
2022-08-26T08:02:51.257Z,54.26
2022-08-26T08:05:33.521Z,53.82
2022-08-26T08:08:26.855Z,53.61
2022-08-26T08:11:27.565Z,53.14
2022-08-26T08:17:25.517Z,53.00
2022-08-26T08:21:22.010Z,52.49
2022-08-26T08:23:58.511Z,51.63
2022-08-26T08:26:32.832Z,52.42
2022-08-26T08:29:05.145Z,51.96
2022-08-26T08:31:56.897Z,51.77
2022-08-26T08:34:31.645Z,51.88
2022-08-26T08:37:05.244Z,51.11
2022-08-26T08:39:39.379Z,50.67
2022-08-26T08:42:30.744Z,50.78
2022-08-26T08:45:09.522Z,50.73
2022-08-26T08:47:47.644Z,50.51
2022-08-26T08:50:25.661Z,50.39
2022-08-26T08:53:16.014Z,49.93
2022-08-26T08:56:06.452Z,49.59
2022-08-26T08:58:48.444Z,49.18
2022-08-26T09:01:29.787Z,49.17
2022-08-26T09:04:19.592Z,48.88
2022-08-26T09:09:36.305Z,48.95
2022-08-26T09:12:14.780Z,48.66
2022-08-26T09:14:49.112Z,48.48
2022-08-26T09:17:36.330Z,48.34
2022-08-26T09:20:20.235Z,48.16
2022-08-26T09:22:53.948Z,47.72
2022-08-26T09:25:26.626Z,47.27
2022-08-26T09:27:58.475Z,47.50
2022-08-26T09:30:34.595Z,47.81
2022-08-26T09:33:10.949Z,47.71
2022-08-26T09:35:47.648Z,47.31
2022-08-26T09:38:29.563Z,47.41
2022-08-26T09:41:05.137Z,46.45
2022-08-26T09:43:38.558Z,46.40
2022-08-26T09:46:20.974Z,46.93
2022-08-26T09:48:53.285Z,46.58
2022-08-26T09:51:31.797Z,46.74
2022-08-26T09:54:08.265Z,46.62
2022-08-26T09:56:42.891Z,45.85
2022-08-26T09:59:16.643Z,45.39
2022-08-26T10:01:51.205Z,45.26
2022-08-26T10:04:28.461Z,44.12
2022-08-26T10:07:02.982Z,44.05
2022-08-26T10:09:37.895Z,44.37
2022-08-26T10:12:14.855Z,43.43
2022-08-26T10:14:52.557Z,43.14
2022-08-26T10:17:30.935Z,43.18
2022-08-26T10:20:15.792Z,41.95
2022-08-26T10:23:00.267Z,42.30
2022-08-26T10:25:37.799Z,42.54
2022-08-26T10:28:13.802Z,42.23
2022-08-26T10:30:51.721Z,42.10
2022-08-26T10:33:24.398Z,41.04
2022-08-26T10:36:01.074Z,40.74
2022-08-26T10:38:37.753Z,41.20
2022-08-26T10:41:16.961Z,40.86
2022-08-26T10:43:53.861Z,39.73
2022-08-26T10:46:29.552Z,39.88
2022-08-26T10:49:06.864Z,39.61
2022-08-26T10:51:45.569Z,39.11
2022-08-26T10:54:21.640Z,39.03
2022-08-26T10:57:04.722Z,38.10
2022-08-26T10:59:51.970Z,38.18
2022-08-26T11:02:29.794Z,38.24
2022-08-26T11:05:04.520Z,38.18
2022-08-26T11:07:44.438Z,35.84
2022-08-26T11:10:57.987Z,35.57
2022-08-26T11:14:02.994Z,36.21
2022-08-26T11:16:42.961Z,36.00
2022-08-26T11:20:00.921Z,36.03
2022-08-26T11:22:48.036Z,35.41
2022-08-26T11:25:24.377Z,35.50
2022-08-26T11:28:01.248Z,35.40
2022-08-26T11:30:45.408Z,35.53
2022-08-26T11:34:01.995Z,34.98
2022-08-26T11:37:03.166Z,35.22
2022-08-26T11:39:54.036Z,35.16
2022-08-26T11:42:36.373Z,34.71
2022-08-26T11:45:19.708Z,33.38
2022-08-26T11:47:54.752Z,33.41
2022-08-26T11:50:29.902Z,33.58
2022-08-26T11:53:06.241Z,32.84
2022-08-26T11:55:47.385Z,32.98
2022-08-26T11:58:21.867Z,33.84
2022-08-26T12:00:59.164Z,33.75
2022-08-26T12:03:38.071Z,33.31
2022-08-26T12:06:17.939Z,32.77
2022-08-26T12:08:51.921Z,31.78
2022-08-26T12:11:26.729Z,31.96
2022-08-26T12:14:04.254Z,30.88
2022-08-26T12:16:41.635Z,31.70
2022-08-26T12:19:27.421Z,31.98
2022-08-26T12:22:05.477Z,31.52
2022-08-26T12:24:39.200Z,31.52
2022-08-26T12:27:19.405Z,31.22
2022-08-26T12:30:08.487Z,30.96
2022-08-26T12:32:56.543Z,30.11
2022-08-26T12:35:32.008Z,30.15
2022-08-26T12:38:05.509Z,30.06
2022-08-26T12:40:44.388Z,30.38
2022-08-26T12:43:44.235Z,30.67
2022-08-26T12:46:19.802Z,30.50
2022-08-26T12:48:53.387Z,30.03
2022-08-26T12:51:29.315Z,28.86
2022-08-26T12:54:06.878Z,29.41
2022-08-26T12:56:46.862Z,29.89
2022-08-26T13:00:07.826Z,28.79
2022-08-26T13:02:43.707Z,28.89
2022-08-26T13:09:10.894Z,29.07
2022-08-26T13:12:06.492Z,29.20
2022-08-26T13:15:06.498Z,29.66
2022-08-26T13:17:45.712Z,29.34
2022-08-26T13:20:20.758Z,29.05
2022-08-26T13:23:23.737Z,28.95
2022-08-26T13:26:03.730Z,29.19
2022-08-26T13:29:01.743Z,29.50
2022-08-26T13:32:02.654Z,29.41
2022-08-26T13:34:42.529Z,29.22
2022-08-26T13:37:40.116Z,29.48
2022-08-26T13:40:25.231Z,29.54
2022-08-26T13:43:31.098Z,29.05
2022-08-26T13:47:22.218Z,29.29
2022-08-26T13:50:03.678Z,29.40
2022-08-26T13:53:03.930Z,28.74
2022-08-26T13:59:29.263Z,29.37
2022-08-26T14:02:05.601Z,29.63
2022-08-26T14:12:01.093Z,29.07
2022-08-26T14:21:59.983Z,28.44
2022-08-26T14:24:38.371Z,28.28
2022-08-26T14:27:14.182Z,28.16
2022-08-26T14:29:48.343Z,27.71
2022-08-26T14:32:54.292Z,27.64
2022-08-26T14:35:29.541Z,28.41
2022-08-26T14:38:03.294Z,27.38
2022-08-26T14:40:37.750Z,27.81
2022-08-26T14:43:10.313Z,27.33
2022-08-26T14:45:45.794Z,27.53
2022-08-26T14:48:19.366Z,27.19
2022-08-26T14:50:51.629Z,27.44
2022-08-26T14:53:50.492Z,27.68
2022-08-26T14:56:23.876Z,27.92
2022-08-26T14:58:57.007Z,27.30
2022-08-26T15:01:32.304Z,27.07
2022-08-26T15:04:05.797Z,26.74
2022-08-26T15:06:39.466Z,26.64
2022-08-26T15:09:12.456Z,26.99
2022-08-26T15:11:47.659Z,26.72
2022-08-26T15:14:20.725Z,26.37
2022-08-26T15:16:56.018Z,26.54
2022-08-26T15:19:29.533Z,26.70
2022-08-26T15:22:01.439Z,26.93
2022-08-26T15:24:36.531Z,26.16
2022-08-26T15:27:09.155Z,25.27
2022-08-26T15:29:42.019Z,25.62
2022-08-26T15:32:14.379Z,26.42
2022-08-26T15:34:48.494Z,25.78
2022-08-26T15:37:21.541Z,25.88
2022-08-26T15:39:57.079Z,25.93
2022-08-26T15:42:30.131Z,25.99
2022-08-26T15:45:03.136Z,25.79
2022-08-26T15:47:38.127Z,25.82
2022-08-26T15:50:29.060Z,26.06
2022-08-26T15:53:01.663Z,26.13
2022-08-26T15:55:34.124Z,26.16
2022-08-26T15:58:08.493Z,26.18
2022-08-26T16:00:43.269Z,26.27
2022-08-26T16:03:21.132Z,26.51
2022-08-26T16:05:55.001Z,26.68
2022-08-26T16:08:27.364Z,26.78
2022-08-26T16:11:05.999Z,26.89
2022-08-26T16:13:40.140Z,27.51
2022-08-26T16:16:16.182Z,27.93
2022-08-26T16:18:50.632Z,28.09
2022-08-26T16:21:24.543Z,28.54
2022-08-26T16:23:57.964Z,29.06
2022-08-26T16:26:32.724Z,29.16
2022-08-26T16:29:08.788Z,29.78
2022-08-26T16:31:42.916Z,30.31
2022-08-26T16:34:17.909Z,30.82
2022-08-26T16:36:51.075Z,30.87
2022-08-26T16:39:23.779Z,31.47
2022-08-26T16:41:57.667Z,31.79
2022-08-26T16:44:30.829Z,32.32
2022-08-26T16:47:05.394Z,32.63
2022-08-26T16:49:37.443Z,33.07
2022-08-26T16:52:10.113Z,33.37
2022-08-26T16:54:44.981Z,33.88
2022-08-26T16:57:18.141Z,34.14
2022-08-26T16:59:50.391Z,34.52
2022-08-26T17:02:24.529Z,34.55
2022-08-26T17:05:01.130Z,34.90
2022-08-26T17:07:37.014Z,35.13
2022-08-26T17:10:10.851Z,35.56
2022-08-26T17:12:47.057Z,35.93
2022-08-26T17:15:27.204Z,36.31
2022-08-26T17:18:04.072Z,36.49
2022-08-26T17:21:02.224Z,36.77
2022-08-26T17:24:04.951Z,36.97
2022-08-26T17:26:48.398Z,37.27
2022-08-26T17:29:23.739Z,37.65
2022-08-26T17:32:34.538Z,38.10
2022-08-26T17:35:14.184Z,38.44
2022-08-26T17:37:49.141Z,38.83
2022-08-26T17:40:23.449Z,39.10
2022-08-26T17:42:58.880Z,39.45
2022-08-26T17:45:31.975Z,39.98
2022-08-26T17:48:08.566Z,40.19
2022-08-26T17:54:31.361Z,40.67
2022-08-26T17:57:10.604Z,40.91
2022-08-26T17:59:46.553Z,41.08
2022-08-26T18:02:24.449Z,41.16
2022-08-26T18:04:58.282Z,41.45
2022-08-26T18:07:37.736Z,41.55
2022-08-26T18:13:47.457Z,41.84
2022-08-26T18:16:27.550Z,42.15
2022-08-26T18:19:47.829Z,42.34
2022-08-26T18:22:22.015Z,42.42
2022-08-26T18:25:18.573Z,43.08
2022-08-26T18:27:52.303Z,43.43
2022-08-26T18:30:54.571Z,43.78
2022-08-26T18:33:53.331Z,43.82
2022-08-26T18:36:50.593Z,43.69
2022-08-26T18:45:30.813Z,44.21
2022-08-26T18:48:10.953Z,44.18
2022-08-26T18:50:47.429Z,43.90
2022-08-26T18:53:20.447Z,43.83
2022-08-26T18:57:07.770Z,43.63
2022-08-26T19:00:28.889Z,43.67
2022-08-26T19:03:48.842Z,43.94
2022-08-26T19:07:41.336Z,43.90
2022-08-26T19:11:04.923Z,44.03
2022-08-26T19:13:41.568Z,44.06
2022-08-26T19:19:50.106Z,44.20
2022-08-26T19:29:58.001Z,44.50
2022-08-26T19:32:34.778Z,44.74
2022-08-26T19:38:12.284Z,44.90
2022-08-26T19:40:46.843Z,44.95
2022-08-26T19:43:21.038Z,45.08
2022-08-26T19:45:57.642Z,45.07
2022-08-26T19:48:55.710Z,45.34
2022-08-26T19:51:35.535Z,45.43
2022-08-26T19:58:21.742Z,45.60
2022-08-26T20:00:54.522Z,45.77
2022-08-26T20:03:29.422Z,45.83
2022-08-26T20:06:27.719Z,45.93
2022-08-26T20:09:06.215Z,45.96
2022-08-26T20:12:08.966Z,46.17
2022-08-26T20:14:44.200Z,46.12
2022-08-26T20:17:41.635Z,46.14
2022-08-26T20:20:34.014Z,46.36
2022-08-26T20:23:53.788Z,46.67
2022-08-26T20:26:53.799Z,46.89
2022-08-26T20:29:26.351Z,46.86
2022-08-26T20:32:03.687Z,46.91
2022-08-26T20:34:39.589Z,46.95
2022-08-26T20:37:11.523Z,47.06
2022-08-26T20:40:08.350Z,47.10
2022-08-26T20:42:44.330Z,47.48
2022-08-26T20:45:17.060Z,47.83
2022-08-26T20:48:17.035Z,48.18
2022-08-26T20:50:50.965Z,48.31
2022-08-26T20:53:51.548Z,48.74
2022-08-26T20:56:53.391Z,49.19
2022-08-26T20:59:50.642Z,49.29
2022-08-26T21:02:50.822Z,49.54
2022-08-26T21:05:25.358Z,49.79
2022-08-26T21:07:59.187Z,49.78
2022-08-26T21:11:25.661Z,50.14
2022-08-26T21:14:07.148Z,50.15
2022-08-26T21:20:14.423Z,50.34
2022-08-26T21:23:12.081Z,50.58
2022-08-26T21:25:46.933Z,50.79
2022-08-26T21:28:21.837Z,51.26
2022-08-26T21:30:56.163Z,51.38
2022-08-26T21:34:24.657Z,51.48
2022-08-26T21:37:22.933Z,51.53
2022-08-26T21:43:33.729Z,51.67
2022-08-26T21:47:20.977Z,51.70
2022-08-26T21:50:27.975Z,51.86
2022-08-26T21:53:24.005Z,52.07
2022-08-26T21:55:57.017Z,52.18
2022-08-26T21:58:32.200Z,52.56
2022-08-26T22:01:12.356Z,52.66
2022-08-26T22:03:47.920Z,52.65
2022-08-26T22:06:24.400Z,52.73
2022-08-26T22:09:47.537Z,52.87
2022-08-26T22:12:43.409Z,53.20
2022-08-26T22:22:01.163Z,53.74
2022-08-26T22:24:57.688Z,53.92
2022-08-26T22:30:53.621Z,54.42
2022-08-26T22:33:27.355Z,54.82
2022-08-26T22:36:27.203Z,55.11
2022-08-26T22:39:05.324Z,55.43
2022-08-26T22:41:45.142Z,56.05
2022-08-26T22:44:19.218Z,56.53
2022-08-26T22:49:54.430Z,57.96
2022-08-26T22:52:31.961Z,57.94
2022-08-26T22:55:31.415Z,58.10
2022-08-26T22:58:30.921Z,58.27
2022-08-26T23:01:08.401Z,58.38
2022-08-26T23:04:09.696Z,58.66
2022-08-26T23:06:48.170Z,58.73
2022-08-26T23:13:08.208Z,59.09
2022-08-26T23:15:43.909Z,59.32
2022-08-26T23:18:21.861Z,60.22
2022-08-26T23:20:55.603Z,60.28
2022-08-26T23:23:28.882Z,59.22
2022-08-26T23:26:07.057Z,57.95
2022-08-26T23:28:39.726Z,58.18
2022-08-26T23:31:45.963Z,57.22
2022-08-26T23:34:42.240Z,56.77
2022-08-26T23:44:45.823Z,56.10
2022-08-26T23:47:23.715Z,56.13
2022-08-26T23:49:58.735Z,56.12
2022-08-26T23:56:21.946Z,57.16
2022-08-26T23:58:55.234Z,57.77
